Time;durP1;ratioP1;P1;durP2;ratioP2;P2;SDS_P1;SDS_P2;PMS_P1;PMS_P2;Temp;Humidity;BMP_temperature;BMP_pressure;BME280_temperature;BME280_humidity;BME280_pressure;Samples;Min_cycle;Max_cycle;Signal;HPM_P1;HPM_P2
2022/07/01 00:01:37;;;;;;;14.90;12.27;;;15.00;99.90;;;;;;5035514;28;20172;-74
2022/07/01 00:04:03;;;;;;;14.27;11.47;;;15.00;99.90;;;;;;5035330;28;20231;-74
2022/07/01 00:06:29;;;;;;;13.53;11.50;;;14.90;99.90;;;;;;5035380;28;20215;-74
2022/07/01 00:08:54;;;;;;;13.80;12.20;;;15.00;99.90;;;;;;5035675;28;20230;-74
2022/07/01 00:11:20;;;;;;;16.03;12.07;;;14.90;99.90;;;;;;5035600;28;20181;-74
2022/07/01 00:13:46;;;;;;;14.73;12.40;;;15.00;99.90;;;;;;5035376;28;20259;-74
2022/07/01 00:16:11;;;;;;;15.77;12.47;;;14.90;99.90;;;;;;5035248;28;20196;-74
2022/07/01 00:18:37;;;;;;;17.10;13.10;;;15.00;99.90;;;;;;5017496;28;20580;-73
2022/07/01 00:21:03;;;;;;;16.73;13.97;;;15.00;99.90;;;;;;5034472;28;20173;-74
2022/07/01 00:23:28;;;;;;;16.77;13.73;;;15.00;99.90;;;;;;5035039;28;20330;-74
2022/07/01 00:25:54;;;;;;;16.83;13.80;;;15.00;99.90;;;;;;5017188;28;20566;-74
2022/07/01 00:28:20;;;;;;;16.97;14.20;;;15.00;99.90;;;;;;5035151;28;20255;-74
2022/07/01 00:30:45;;;;;;;15.10;12.67;;;15.10;99.90;;;;;;5017271;28;20172;-74
2022/07/01 00:33:11;;;;;;;16.17;12.73;;;15.00;99.90;;;;;;5017157;28;20185;-74
2022/07/01 00:35:37;;;;;;;13.67;11.60;;;15.00;99.90;;;;;;5034843;28;20699;-74
2022/07/01 00:38:03;;;;;;;14.00;12.20;;;15.00;99.90;;;;;;5035089;28;20180;-74
2022/07/01 00:40:28;;;;;;;14.97;11.97;;;15.00;99.90;;;;;;5035096;28;20184;-74
2022/07/01 00:42:54;;;;;;;14.13;11.33;;;15.00;99.90;;;;;;5034686;28;20200;-74
2022/07/01 00:45:19;;;;;;;13.20;11.47;;;15.00;99.90;;;;;;5017056;28;20196;-75
2022/07/01 00:47:45;;;;;;;13.63;11.20;;;15.00;99.90;;;;;;5034999;28;20175;-75
2022/07/01 00:50:13;;;;;;;14.37;10.80;;;15.00;99.90;;;;;;5034667;28;20646;-75
2022/07/01 00:52:40;;;;;;;13.33;10.70;;;14.90;99.90;;;;;;5034627;28;20176;-74
2022/07/01 00:55:08;;;;;;;13.37;10.67;;;15.00;99.90;;;;;;5016690;28;20264;-75
2022/07/01 00:57:36;;;;;;;12.30;9.90;;;14.90;99.90;;;;;;5016960;28;20169;-75
2022/07/01 01:00:14;;;;;;;11.23;9.10;;;14.80;99.90;;;;;;5034610;28;20168;-75
2022/07/01 01:02:40;;;;;;;12.60;9.47;;;14.80;99.90;;;;;;5034617;28;20152;-75
2022/07/01 01:05:07;;;;;;;13.83;8.57;;;14.80;99.90;;;;;;5034303;28;20646;-74
2022/07/01 01:07:33;;;;;;;12.17;7.93;;;14.80;99.90;;;;;;5016572;28;20172;-74
2022/07/01 01:10:01;;;;;;;11.63;7.90;;;14.80;99.90;;;;;;5034317;28;20168;-74
2022/07/01 01:12:27;;;;;;;10.67;7.30;;;14.80;99.90;;;;;;5034253;28;20272;-75
2022/07/01 01:14:53;;;;;;;10.43;8.37;;;14.90;99.90;;;;;;5034201;28;20222;-74
2022/07/01 01:17:20;;;;;;;11.03;7.63;;;14.90;99.90;;;;;;5034163;28;20184;-75
2022/07/01 01:19:46;;;;;;;8.03;6.33;;;14.90;99.90;;;;;;5034278;28;20172;-74
2022/07/01 01:22:15;;;;;;;8.37;6.80;;;14.90;99.90;;;;;;5016168;28;20176;-74
2022/07/01 01:24:41;;;;;;;9.33;6.93;;;14.80;99.90;;;;;;5016111;28;20200;-74
2022/07/01 01:27:07;;;;;;;9.63;6.97;;;14.80;99.90;;;;;;5033773;28;20282;-74
2022/07/01 01:29:35;;;;;;;8.47;6.83;;;14.80;99.90;;;;;;5033803;28;20165;-74
2022/07/01 01:32:01;;;;;;;8.40;6.63;;;14.80;99.90;;;;;;5032837;28;20172;-75
2022/07/01 01:34:27;;;;;;;7.63;6.37;;;14.90;99.90;;;;;;5033701;28;20600;-75
2022/07/01 01:36:53;;;;;;;8.07;5.90;;;14.80;99.90;;;;;;5015793;28;20220;-74
2022/07/01 01:39:19;;;;;;;8.47;6.63;;;14.80;99.90;;;;;;5033663;28;20172;-75
2022/07/01 01:41:46;;;;;;;8.57;6.07;;;14.80;99.90;;;;;;5033853;28;20168;-74
2022/07/01 01:44:12;;;;;;;7.23;6.10;;;14.80;99.90;;;;;;5033534;28;20203;-74
2022/07/01 01:46:38;;;;;;;10.13;7.17;;;14.80;99.90;;;;;;5033500;28;20250;-74
2022/07/01 01:49:04;;;;;;;7.80;6.43;;;14.80;99.90;;;;;;5033550;28;20638;-74
2022/07/01 01:51:30;;;;;;;8.33;5.77;;;14.80;99.90;;;;;;5015785;28;20180;-74
2022/07/01 01:53:56;;;;;;;9.20;5.90;;;14.80;99.90;;;;;;5033435;28;20302;-74
2022/07/01 01:56:22;;;;;;;7.00;5.73;;;14.80;99.90;;;;;;5033611;28;20203;-74
2022/07/01 01:58:49;;;;;;;9.27;5.50;;;14.70;99.90;;;;;;5033600;28;20188;-74
2022/07/01 02:01:16;;;;;;;11.57;5.87;;;14.70;99.90;;;;;;5033404;28;20170;-75
2022/07/01 02:03:43;;;;;;;12.77;6.17;;;14.70;99.90;;;;;;5033569;28;20286;-74
2022/07/01 02:06:09;;;;;;;12.03;5.77;;;14.70;99.90;;;;;;5033372;28;20196;-74
2022/07/01 02:08:35;;;;;;;9.77;6.40;;;14.70;99.90;;;;;;5033267;28;20164;-75
2022/07/01 02:11:01;;;;;;;11.07;5.83;;;14.70;99.90;;;;;;5033260;28;20179;-74
2022/07/01 02:13:26;;;;;;;11.13;6.57;;;14.50;99.90;;;;;;5033375;28;20180;-74
2022/07/01 02:15:52;;;;;;;8.73;5.30;;;14.60;99.90;;;;;;5032994;28;20708;-74
2022/07/01 02:18:18;;;;;;;11.33;6.40;;;14.60;99.90;;;;;;5015385;28;20180;-74
2022/07/01 02:20:43;;;;;;;9.53;5.63;;;14.70;99.90;;;;;;5033025;28;20172;-74
2022/07/01 02:23:09;;;;;;;8.43;5.67;;;14.70;99.90;;;;;;5033055;28;20407;-74
2022/07/01 02:25:36;;;;;;;9.00;5.90;;;14.60;99.90;;;;;;5032927;28;20192;-74
2022/07/01 02:28:02;;;;;;;8.60;5.50;;;14.60;99.90;;;;;;5033598;28;20625;-74
2022/07/01 02:30:28;;;;;;;10.80;5.93;;;14.60;99.90;;;;;;5015150;28;20176;-75
2022/07/01 02:32:54;;;;;;;13.80;6.10;;;14.60;99.90;;;;;;5032039;28;20183;-74
2022/07/01 02:35:20;;;;;;;11.00;5.83;;;14.60;99.90;;;;;;5032768;28;20200;-74
2022/07/01 02:37:46;;;;;;;9.63;6.20;;;14.50;99.90;;;;;;5033034;28;20156;-74
2022/07/01 02:40:13;;;;;;;12.03;6.33;;;14.50;99.90;;;;;;5015392;28;20712;-75
2022/07/01 02:42:39;;;;;;;12.10;7.00;;;14.50;99.90;;;;;;5015147;28;20187;-74
2022/07/01 02:45:06;;;;;;;16.13;6.47;;;14.50;99.90;;;;;;5018475;28;20176;-74
2022/07/01 02:47:37;;;;;;;12.90;7.00;;;14.50;99.90;;;;;;5019160;28;20180;-74
2022/07/01 02:50:04;;;;;;;12.63;7.30;;;14.40;99.90;;;;;;5019352;28;20175;-74
2022/07/01 02:52:30;;;;;;;10.53;6.70;;;14.50;99.90;;;;;;5036727;28;20206;-76
2022/07/01 02:54:55;;;;;;;10.17;6.73;;;14.50;99.90;;;;;;5035865;28;20176;-74
2022/07/01 02:57:22;;;;;;;11.40;6.53;;;14.50;99.90;;;;;;5036734;28;20234;-74
2022/07/01 02:59:47;;;;;;;10.20;6.53;;;14.50;99.90;;;;;;5036824;28;20183;-74
2022/07/01 03:02:13;;;;;;;12.67;8.00;;;14.50;99.90;;;;;;5018929;28;20172;-74
2022/07/01 03:04:38;;;;;;;12.40;7.90;;;14.50;99.90;;;;;;5036946;28;20211;-74
2022/07/01 03:07:04;;;;;;;12.63;7.03;;;14.50;99.90;;;;;;5018756;28;20201;-74
2022/07/01 03:09:30;;;;;;;14.27;7.97;;;14.60;99.90;;;;;;5036807;28;20168;-74
2022/07/01 03:11:55;;;;;;;16.03;8.40;;;14.60;99.90;;;;;;5036518;28;20211;-74
2022/07/01 03:14:21;;;;;;;15.03;8.07;;;14.60;99.90;;;;;;5036366;28;20184;-74
2022/07/01 03:16:49;;;;;;;10.47;7.03;;;14.60;99.90;;;;;;5036315;28;20200;-74
2022/07/01 03:19:15;;;;;;;12.00;7.27;;;14.60;99.90;;;;;;5018628;28;20215;-75
2022/07/01 03:21:41;;;;;;;12.23;7.83;;;14.60;99.90;;;;;;5018612;28;20208;-75
2022/07/01 03:24:07;;;;;;;12.37;8.43;;;14.60;99.90;;;;;;5036851;28;20293;-76
2022/07/01 03:26:32;;;;;;;13.87;8.13;;;14.60;99.90;;;;;;5036219;28;20673;-76
2022/07/01 03:28:58;;;;;;;15.20;7.47;;;14.60;99.90;;;;;;5036502;28;20181;-76
2022/07/01 03:31:23;;;;;;;14.00;8.73;;;14.60;99.90;;;;;;5018419;28;20180;-76
2022/07/01 03:33:49;;;;;;;10.90;7.57;;;14.60;99.90;;;;;;5036316;28;20172;-76
2022/07/01 03:36:14;;;;;;;15.27;8.20;;;14.60;99.90;;;;;;5036116;28;20233;-75
2022/07/01 03:38:40;;;;;;;10.97;7.23;;;14.60;99.90;;;;;;5036230;28;20653;-76
2022/07/01 03:41:06;;;;;;;11.80;7.87;;;14.60;99.90;;;;;;5035933;28;20184;-76
2022/07/01 03:43:31;;;;;;;13.37;7.53;;;14.60;99.90;;;;;;5035950;28;20204;-76
2022/07/01 03:45:57;;;;;;;12.53;7.77;;;14.60;99.90;;;;;;5036219;28;20204;-75
2022/07/01 03:48:22;;;;;;;15.50;7.80;;;14.60;99.90;;;;;;5035831;28;20176;-76
2022/07/01 03:50:48;;;;;;;10.80;7.53;;;14.70;99.90;;;;;;5036334;28;20230;-76
2022/07/01 03:55:57;;;;;;;11.20;7.07;;;14.70;99.90;;;;;;5034823;28;20283;-76
2022/07/01 03:58:23;;;;;;;11.10;7.23;;;14.70;99.90;;;;;;5035853;28;20251;-75
2022/07/01 04:00:48;;;;;;;11.87;6.50;;;14.70;99.90;;;;;;5017909;28;20188;-76
2022/07/01 04:03:14;;;;;;;10.00;7.27;;;14.80;99.90;;;;;;5035497;28;20735;-76
2022/07/01 04:05:40;;;;;;;12.93;6.60;;;14.70;99.90;;;;;;5035478;28;20633;-74
2022/07/01 04:08:07;;;;;;;11.37;6.10;;;14.80;99.90;;;;;;5017804;28;20259;-74
2022/07/01 04:10:34;;;;;;;7.30;6.10;;;14.70;99.90;;;;;;5035466;28;20259;-73
2022/07/01 04:13:03;;;;;;;12.77;6.23;;;14.80;99.90;;;;;;5035423;28;20176;-74
2022/07/01 04:15:28;;;;;;;9.67;5.80;;;14.70;99.90;;;;;;5035366;28;20196;-73
2022/07/01 04:17:55;;;;;;;8.13;5.43;;;14.70;99.90;;;;;;5035251;28;20203;-74
2022/07/01 04:20:20;;;;;;;9.53;5.23;;;14.70;99.90;;;;;;5035187;28;20200;-74
2022/07/01 04:22:46;;;;;;;10.90;5.67;;;14.80;99.90;;;;;;5035135;28;20265;-74
2022/07/01 04:25:12;;;;;;;12.63;6.40;;;14.70;99.90;;;;;;5017418;28;20172;-74
2022/07/01 04:27:37;;;;;;;8.17;5.77;;;14.60;99.90;;;;;;5035191;28;20180;-74
2022/07/01 04:30:03;;;;;;;9.20;4.93;;;14.70;99.90;;;;;;5035157;28;20278;-74
2022/07/01 04:32:30;;;;;;;8.67;5.53;;;14.60;99.90;;;;;;5035737;28;20172;-75
2022/07/01 04:34:56;;;;;;;8.33;4.83;;;14.70;99.90;;;;;;5035291;28;20276;-74
2022/07/01 04:37:22;;;;;;;8.30;5.10;;;14.70;99.90;;;;;;5073611;22;20203;-96
2022/07/01 04:39:51;;;;;;;9.30;4.60;;;14.70;99.90;;;;;;5044352;28;20148;-96
2022/07/01 04:42:20;;;;;;;8.23;5.40;;;14.70;99.90;;;;;;5044710;28;20160;-96
2022/07/01 04:44:49;;;;;;;9.93;4.47;;;14.70;99.90;;;;;;5061621;28;20187;-96
2022/07/01 04:47:15;;;;;;;10.53;4.30;;;14.60;99.90;;;;;;5061623;28;20136;-96
2022/07/01 04:49:41;;;;;;;8.13;4.43;;;14.50;99.90;;;;;;5044493;28;20140;-96
2022/07/01 04:52:07;;;;;;;5.50;4.27;;;15.40;99.90;;;;;;5037502;22;20228;-73
2022/07/01 04:54:32;;;;;;;11.00;4.47;;;14.80;99.90;;;;;;5037271;28;20239;-72
2022/07/01 04:56:58;;;;;;;5.47;3.90;;;14.70;99.90;;;;;;5037272;28;20608;-73
2022/07/01 04:59:23;;;;;;;7.50;3.10;;;14.70;99.90;;;;;;5020030;28;20186;-73
2022/07/01 05:01:49;;;;;;;6.17;3.90;;;14.60;99.90;;;;;;5037582;28;20177;-73
2022/07/01 05:04:15;;;;;;;6.70;4.23;;;14.70;99.90;;;;;;5019217;28;20572;-73
2022/07/01 05:06:41;;;;;;;8.60;4.63;;;14.80;99.90;;;;;;5036896;28;20192;-73
2022/07/01 05:09:06;;;;;;;7.60;3.90;;;14.80;99.90;;;;;;5037702;28;20164;-73
2022/07/01 05:11:32;;;;;;;7.77;3.70;;;14.80;99.90;;;;;;5037457;28;20171;-73
2022/07/01 05:13:58;;;;;;;7.13;3.90;;;14.70;99.90;;;;;;5020487;28;20172;-73
2022/07/01 05:16:24;;;;;;;6.77;3.60;;;15.40;99.90;;;;;;5021261;28;20223;-73
2022/07/01 05:24:18;;;;;;;13.43;3.67;;;14.70;99.90;;;;;;5038422;28;20674;-72
2022/07/01 05:26:44;;;;;;;8.03;3.73;;;14.70;99.90;;;;;;5019763;28;20192;-73
2022/07/01 05:29:09;;;;;;;5.20;3.53;;;14.60;99.90;;;;;;5038358;28;20252;-73
2022/07/01 05:31:35;;;;;;;8.03;3.23;;;14.60;99.90;;;;;;5037245;28;20172;-72
2022/07/01 05:34:01;;;;;;;6.80;4.33;;;14.60;99.90;;;;;;5036286;28;20584;-72
2022/07/01 05:36:26;;;;;;;7.23;3.40;;;14.60;99.90;;;;;;5036517;28;20206;-72
2022/07/01 05:38:52;;;;;;;9.47;3.67;;;14.70;99.90;;;;;;5018830;28;20561;-72
2022/07/01 05:41:18;;;;;;;8.40;4.53;;;14.70;99.90;;;;;;5019439;28;20184;-73
2022/07/01 05:43:44;;;;;;;5.50;3.80;;;14.70;99.90;;;;;;5020845;28;20204;-72
2022/07/01 05:46:09;;;;;;;7.43;3.20;;;14.80;99.90;;;;;;5020054;28;20267;-72
2022/07/01 05:48:35;;;;;;;5.03;3.63;;;14.80;99.90;;;;;;5019638;28;20184;-72
2022/07/01 05:51:00;;;;;;;7.77;4.00;;;14.80;99.90;;;;;;5019581;28;20196;-73
2022/07/01 05:53:26;;;;;;;7.70;3.67;;;14.80;99.90;;;;;;5018888;28;20188;-72
2022/07/01 05:55:52;;;;;;;7.33;4.47;;;14.80;99.90;;;;;;5019234;28;20551;-73
2022/07/01 05:58:17;;;;;;;3.97;3.57;;;14.80;99.90;;;;;;5018450;28;20231;-72
2022/07/01 06:00:43;;;;;;;7.70;4.03;;;15.00;99.90;;;;;;5018700;28;20242;-72
2022/07/01 06:03:10;;;;;;;4.93;3.50;;;14.80;99.90;;;;;;5018760;28;20204;-73
2022/07/01 06:05:36;;;;;;;11.93;4.27;;;14.90;99.90;;;;;;5017946;28;20180;-73
2022/07/01 06:08:02;;;;;;;4.00;3.60;;;14.90;99.90;;;;;;5036382;28;20203;-73
2022/07/01 06:10:27;;;;;;;7.53;3.93;;;14.90;99.90;;;;;;5035578;28;20638;-73
2022/07/01 06:12:53;;;;;;;4.87;3.33;;;15.50;99.90;;;;;;5036607;28;20191;-73
2022/07/01 06:15:18;;;;;;;8.57;4.40;;;15.00;99.90;;;;;;5019673;28;20184;-73
2022/07/01 06:17:44;;;;;;;6.37;4.17;;;15.00;99.90;;;;;;5036068;28;20200;-72
2022/07/01 06:20:10;;;;;;;4.67;3.50;;;15.20;99.90;;;;;;5036587;28;20184;-73
2022/07/01 06:22:35;;;;;;;6.13;3.70;;;15.20;99.90;;;;;;5018503;28;20267;-73
2022/07/01 06:25:02;;;;;;;6.60;4.47;;;15.20;99.90;;;;;;5018199;28;20196;-73
2022/07/01 06:27:28;;;;;;;7.83;4.20;;;15.20;99.90;;;;;;5019820;28;20200;-72
2022/07/01 06:29:53;;;;;;;6.50;4.00;;;15.20;99.90;;;;;;5038271;28;20191;-72
2022/07/01 06:32:19;;;;;;;7.47;4.10;;;15.20;99.90;;;;;;5038432;28;20215;-73
2022/07/01 06:34:45;;;;;;;4.23;3.40;;;15.10;99.90;;;;;;5037485;28;20187;-73
2022/07/01 06:37:11;;;;;;;6.13;3.60;;;15.20;99.90;;;;;;5036631;28;20211;-73
2022/07/01 06:39:37;;;;;;;5.30;4.07;;;15.10;99.90;;;;;;5036925;28;20230;-73
2022/07/01 06:42:03;;;;;;;4.90;3.53;;;15.20;99.90;;;;;;5018662;28;20180;-73
2022/07/01 06:44:28;;;;;;;9.33;3.60;;;15.30;99.90;;;;;;5036835;28;20204;-73
2022/07/01 06:46:54;;;;;;;6.73;3.53;;;15.40;99.90;;;;;;5019485;28;20200;-73
2022/07/01 06:49:20;;;;;;;6.43;4.03;;;15.50;99.90;;;;;;5036028;28;20168;-73
2022/07/01 06:51:45;;;;;;;8.17;4.50;;;15.50;99.90;;;;;;5018944;28;20198;-73
2022/07/01 06:54:11;;;;;;;7.13;3.87;;;15.60;99.90;;;;;;5018886;28;20314;-73
2022/07/01 06:56:36;;;;;;;7.23;4.60;;;15.60;99.90;;;;;;5019466;28;20208;-73
2022/07/01 06:59:02;;;;;;;7.20;4.03;;;15.60;99.90;;;;;;5036286;28;20177;-74
2022/07/01 07:01:28;;;;;;;5.37;3.90;;;15.60;99.90;;;;;;5037511;28;20191;-74
2022/07/01 07:03:54;;;;;;;10.33;4.47;;;15.70;99.90;;;;;;5036918;28;20203;-74
2022/07/01 07:06:20;;;;;;;9.37;4.23;;;15.70;99.90;;;;;;5019125;28;20176;-74
2022/07/01 07:08:45;;;;;;;7.20;4.20;;;15.60;99.90;;;;;;5019360;28;20180;-74
2022/07/01 07:11:12;;;;;;;7.47;3.90;;;16.00;99.90;;;;;;5037975;28;20180;-73
2022/07/01 07:13:37;;;;;;;4.77;3.67;;;15.60;99.90;;;;;;5019144;28;20180;-73
2022/07/01 07:16:03;;;;;;;12.53;4.53;;;15.60;99.90;;;;;;5036331;28;20180;-74
2022/07/01 07:18:29;;;;;;;12.03;4.47;;;15.60;99.90;;;;;;5035265;28;20205;-74
2022/07/01 07:20:54;;;;;;;6.30;4.50;;;15.70;99.90;;;;;;5035577;28;20255;-74
2022/07/01 07:23:20;;;;;;;11.13;4.60;;;15.80;99.90;;;;;;5035582;28;20196;-73
2022/07/01 07:25:46;;;;;;;5.37;4.10;;;15.80;99.90;;;;;;5018003;28;20621;-74
2022/07/01 07:28:11;;;;;;;5.20;4.10;;;15.80;99.90;;;;;;5035178;28;20222;-73
2022/07/01 07:30:37;;;;;;;6.77;3.90;;;15.80;99.90;;;;;;5038123;28;20176;-74
2022/07/01 07:33:03;;;;;;;3.93;3.43;;;15.80;99.90;;;;;;5040061;28;20176;-74
2022/07/01 07:35:28;;;;;;;6.23;3.70;;;15.90;99.90;;;;;;5039646;28;20188;-74
2022/07/01 07:37:54;;;;;;;5.03;4.03;;;16.00;99.90;;;;;;5039433;28;20200;-73
2022/07/01 07:40:19;;;;;;;4.97;3.30;;;16.00;99.90;;;;;;5040357;28;20309;-73
2022/07/01 07:42:46;;;;;;;5.50;3.63;;;16.00;99.90;;;;;;5037373;28;20176;-73
2022/07/01 07:45:13;;;;;;;8.87;4.37;;;16.20;99.90;;;;;;5039879;28;20218;-73
2022/07/01 07:47:43;;;;;;;5.70;3.23;;;16.20;99.90;;;;;;5039801;28;20196;-74
2022/07/01 07:50:08;;;;;;;10.37;3.63;;;16.30;99.90;;;;;;5022240;28;20179;-74
2022/07/01 07:52:34;;;;;;;5.90;3.43;;;16.20;99.90;;;;;;5039842;28;20185;-74
2022/07/01 07:55:00;;;;;;;5.13;3.73;;;16.30;99.90;;;;;;5040079;28;20275;-74
2022/07/01 07:57:25;;;;;;;5.23;3.80;;;16.40;99.90;;;;;;5022181;28;20228;-73
2022/07/01 07:59:51;;;;;;;6.03;3.73;;;16.40;99.90;;;;;;5039944;28;20642;-74
2022/07/01 08:02:16;;;;;;;5.87;4.13;;;16.50;99.90;;;;;;5039489;28;20188;-73
2022/07/01 08:04:42;;;;;;;4.03;3.27;;;16.50;99.90;;;;;;5022212;28;20200;-73
2022/07/01 08:07:08;;;;;;;5.23;3.80;;;16.60;99.90;;;;;;5038910;28;20192;-73
2022/07/01 08:09:34;;;;;;;11.80;3.90;;;16.70;99.90;;;;;;5021183;28;20191;-74
2022/07/01 08:12:00;;;;;;;8.40;3.50;;;16.60;99.90;;;;;;5039929;28;20230;-74
2022/07/01 08:14:26;;;;;;;4.30;2.90;;;16.80;99.90;;;;;;5039664;28;20207;-74
2022/07/01 08:16:52;;;;;;;7.27;3.20;;;16.60;99.90;;;;;;5020982;28;20258;-73
2022/07/01 08:19:17;;;;;;;8.27;3.37;;;16.50;99.90;;;;;;5021709;28;20211;-74
2022/07/01 08:21:43;;;;;;;6.23;3.70;;;16.40;99.90;;;;;;5039044;28;20180;-73
2022/07/01 08:24:08;;;;;;;6.30;3.50;;;16.40;99.90;;;;;;5038500;28;20214;-74
2022/07/01 08:26:34;;;;;;;9.33;3.60;;;16.40;99.90;;;;;;5021433;28;20595;-73
2022/07/01 08:28:59;;;;;;;3.77;3.27;;;16.40;99.90;;;;;;5020515;28;20204;-73
2022/07/01 08:31:25;;;;;;;7.27;3.80;;;16.40;99.90;;;;;;5038310;28;20191;-73
2022/07/01 08:33:50;;;;;;;5.13;3.13;;;16.40;99.90;;;;;;5021012;28;20180;-73
2022/07/01 08:36:16;;;;;;;5.90;3.73;;;16.50;99.90;;;;;;5020687;28;20172;-73
2022/07/01 08:38:42;;;;;;;5.73;3.00;;;16.70;99.90;;;;;;5038761;28;20255;-73
2022/07/01 08:41:07;;;;;;;12.30;3.60;;;16.80;99.90;;;;;;5037643;28;20176;-73
2022/07/01 08:43:34;;;;;;;10.20;3.23;;;17.10;99.90;;;;;;5038560;28;20196;-73
2022/07/01 08:46:03;;;;;;;4.67;2.67;;;17.10;99.90;;;;;;5020002;28;20187;-73
2022/07/01 08:48:30;;;;;;;6.63;2.40;;;17.20;99.90;;;;;;5019688;28;20636;-73
2022/07/01 08:50:56;;;;;;;3.90;2.80;;;17.30;99.90;;;;;;5037865;28;20218;-74
2022/07/01 08:53:22;;;;;;;4.30;2.67;;;17.40;99.90;;;;;;5020150;28;20184;-74
2022/07/01 08:58:32;;;;;;;4.00;2.10;;;17.50;99.90;;;;;;5038035;28;20207;-74
2022/07/01 09:01:22;;;;;;;3.00;2.10;;;17.50;1.80;;;;;;5037094;28;20181;-74
2022/07/01 09:03:49;;;;;;;6.03;1.90;;;17.70;99.90;;;;;;5021087;28;20196;-73
2022/07/01 09:06:23;;;;;;;3.17;1.60;;;17.80;1.00;;;;;;5036675;28;20180;-72
2022/07/01 09:08:49;;;;;;;5.33;1.80;;;17.90;1.00;;;;;;5018723;28;20596;-73
2022/07/01 09:11:18;;;;;;;3.57;1.40;;;18.00;99.90;;;;;;5019191;28;20181;-73
2022/07/01 09:14:04;;;;;;;2.73;1.43;;;18.00;99.90;;;;;;5019618;28;20191;-73
2022/07/01 09:16:29;;;;;;;1.63;1.20;;;18.00;99.90;;;;;;5019256;28;20603;-73
2022/07/01 09:19:04;;;;;;;5.70;1.70;;;17.90;99.90;;;;;;5036291;28;20180;-73
2022/07/01 09:21:31;;;;;;;7.53;2.33;;;17.90;1.00;;;;;;5018856;28;20215;-73
2022/07/01 09:23:59;;;;;;;5.80;2.00;;;17.90;99.90;;;;;;5036406;28;20246;-73
2022/07/01 09:26:27;;;;;;;3.87;1.30;;;17.90;1.00;;;;;;5018662;28;20180;-72
2022/07/01 09:28:57;;;;;;;3.93;1.53;;;18.00;99.90;;;;;;5018471;28;20601;-73
2022/07/01 09:31:32;;;;;;;1.80;1.07;;;18.00;99.90;;;;;;5036665;28;20168;-73
2022/07/01 09:34:06;;;;;;;3.07;1.30;;;18.10;99.90;;;;;;5036243;28;20172;-72
2022/07/01 09:36:32;;;;;;;4.80;1.57;;;18.20;1.00;;;;;;5036638;28;20283;-74
2022/07/01 09:39:02;;;;;;;3.50;1.07;;;18.20;1.00;;;;;;5036131;28;20199;-73
2022/07/01 09:41:35;;;;;;;1.53;1.13;;;18.10;1.00;;;;;;5036558;28;20454;-73
2022/07/01 09:44:06;;;;;;;4.10;1.20;;;18.10;1.00;;;;;;5018794;28;20234;-73
2022/07/01 09:46:32;;;;;;;5.83;1.13;;;18.20;99.90;;;;;;5018022;28;20207;-72
2022/07/01 09:48:58;;;;;;;1.60;0.93;;;18.20;45.80;;;;;;5036382;28;20164;-74
2022/07/01 09:51:23;;;;;;;1.33;0.87;;;18.20;99.90;;;;;;5035438;28;20682;-73
2022/07/01 09:53:49;;;;;;;3.40;1.07;;;18.30;99.90;;;;;;5035343;28;20180;-73
2022/07/01 09:56:14;;;;;;;1.87;0.80;;;18.30;30.80;;;;;;5035087;28;20177;-73
2022/07/01 09:58:42;;;;;;;3.10;0.90;;;18.40;10.90;;;;;;5034918;28;20172;-74
2022/07/01 10:01:09;;;;;;;1.90;0.77;;;18.50;1.00;;;;;;5035528;28;20200;-73
2022/07/01 10:03:38;;;;;;;2.23;0.70;;;18.70;1.00;;;;;;5036351;28;20200;-73
2022/07/01 10:06:23;;;;;;;1.60;0.70;;;18.80;1.00;;;;;;5034944;28;20646;-72
2022/07/01 10:09:04;;;;;;;1.93;0.93;;;18.80;1.00;;;;;;5019832;28;20242;-72
2022/07/01 10:11:34;;;;;;;3.33;0.77;;;18.90;1.00;;;;;;5037495;28;20160;-74
2022/07/01 10:14:03;;;;;;;3.07;0.80;;;18.80;1.00;;;;;;5017243;28;20180;-73
2022/07/01 10:16:30;;;;;;;1.13;0.70;;;18.80;99.90;;;;;;5034790;28;20196;-73
2022/07/01 10:18:56;;;;;;;3.67;0.90;;;18.80;99.90;;;;;;5016796;28;20267;-72
2022/07/01 10:21:27;;;;;;;3.13;1.00;;;18.80;1.00;;;;;;5016450;28;20298;-73
2022/07/01 10:24:10;;;;;;;1.40;0.70;;;18.80;1.00;;;;;;5017056;28;20195;-72
2022/07/01 10:26:36;;;;;;;1.67;0.90;;;18.70;99.90;;;;;;5016806;28;20231;-73
2022/07/01 10:29:02;;;;;;;1.87;0.80;;;18.90;1.00;;;;;;5033338;28;20210;-73
2022/07/01 10:31:37;;;;;;;2.13;0.90;;;19.10;99.90;;;;;;5033848;28;20251;-73
2022/07/01 10:34:04;;;;;;;2.33;0.90;;;19.20;99.90;;;;;;5033639;28;20228;-73
2022/07/01 10:36:32;;;;;;;2.37;0.93;;;19.20;1.00;;;;;;5033428;28;20686;-73
2022/07/01 10:41:31;;;;;;;2.97;0.80;;;19.50;1.00;;;;;;5075043;22;20605;-77
2022/07/01 10:43:57;;;;;;;5.17;1.20;;;19.40;1.00;;;;;;5052339;28;20681;-78
2022/07/01 10:46:49;;;;;;;2.17;0.83;;;19.40;99.90;;;;;;5035334;28;20641;-76
2022/07/01 10:49:15;;;;;;;4.90;0.90;;;19.20;1.00;;;;;;5053276;28;20159;-76
2022/07/01 10:51:58;;;;;;;4.00;1.10;;;19.10;1.00;;;;;;5035195;28;20171;-77
2022/07/01 10:54:35;;;;;;;3.27;0.87;;;19.00;1.00;;;;;;5056785;28;20187;-79
2022/07/01 10:57:19;;;;;;;3.97;1.00;;;19.00;1.00;;;;;;5057437;28;20179;-78
2022/07/01 11:00:00;;;;;;;1.80;1.00;;;19.00;99.90;;;;;;5032910;28;20956;-76
2022/07/01 11:02:29;;;;;;;4.83;1.37;;;19.20;1.00;;;;;;5035156;28;20528;-78
2022/07/01 11:04:59;;;;;;;3.33;0.87;;;19.30;99.90;;;;;;5036450;28;20253;-76
2022/07/01 11:07:30;;;;;;;1.83;0.90;;;19.40;99.90;;;;;;5056139;28;20556;-77
2022/07/01 11:09:57;;;;;;;2.07;0.90;;;19.30;1.00;;;;;;5057351;28;20574;-77
2022/07/01 11:12:23;;;;;;;3.43;1.00;;;19.30;1.00;;;;;;5038098;28;20214;-76
2022/07/01 11:14:49;;;;;;;5.17;1.37;;;19.10;99.90;;;;;;5058261;28;20213;-78
2022/07/01 11:17:15;;;;;;;2.37;1.07;;;19.10;4.10;;;;;;5064365;28;20182;-79
2022/07/01 11:19:51;;;;;;;4.47;1.30;;;19.00;99.90;;;;;;5057031;28;20196;-77
2022/07/01 11:22:24;;;;;;;2.60;0.90;;;19.10;99.90;;;;;;5057566;28;20205;-77
2022/07/01 11:24:58;;;;;;;2.47;0.83;;;19.30;99.90;;;;;;5057691;28;20196;-76
2022/07/01 11:27:25;;;;;;;1.93;1.07;;;19.40;1.00;;;;;;5044461;28;20202;-79
2022/07/01 11:29:52;;;;;;;5.03;1.23;;;19.50;19.30;;;;;;5046373;28;20291;-79
2022/07/01 11:32:29;;;;;;;2.67;0.67;;;19.90;99.90;;;;;;5059244;28;20634;-77
2022/07/01 11:34:55;;;;;;;1.13;0.83;;;19.80;99.90;;;;;;5066073;28;20166;-79
2022/07/01 11:40:11;;;;;;;0.70;0.70;;;20.10;1.00;;;;;;5062944;28;20276;-80
2022/07/01 11:42:38;;;;;;;0.73;0.60;;;20.40;90.20;;;;;;5063682;28;20245;-79
2022/07/01 11:45:04;;;;;;;2.10;0.67;;;20.60;1.00;;;;;;5058403;28;20290;-78
2022/07/01 11:47:30;;;;;;;2.87;0.50;;;20.70;1.00;;;;;;5073318;28;20177;-78
2022/07/01 11:49:57;;;;;;;4.23;1.00;;;20.80;1.00;;;;;;5073399;28;20223;-77
2022/07/01 11:52:23;;;;;;;1.80;0.60;;;20.70;1.00;;;;;;5045196;28;20610;-77
2022/07/01 11:54:51;;;;;;;0.73;0.50;;;20.80;1.00;;;;;;5058809;28;20172;-78
2022/07/01 11:57:26;;;;;;;1.50;0.73;;;20.50;1.00;;;;;;5039768;28;20184;-78
2022/07/01 11:59:54;;;;;;;1.80;0.87;;;20.40;1.00;;;;;;5058834;28;20230;-78
2022/07/01 12:02:22;;;;;;;1.77;0.90;;;20.30;1.00;;;;;;5042218;28;20179;-78
2022/07/01 12:04:48;;;;;;;1.27;0.50;;;20.40;1.00;;;;;;5059256;28;20336;-79
2022/07/01 12:07:16;;;;;;;2.33;0.83;;;20.40;1.00;;;;;;5058922;28;20182;-79
2022/07/01 12:09:42;;;;;;;3.20;0.70;;;20.50;1.00;;;;;;5039493;28;20198;-77
2022/07/01 12:12:15;;;;;;;1.83;0.43;;;20.50;1.00;;;;;;5055678;28;20183;-79
2022/07/01 12:14:55;;;;;;;3.23;0.70;;;20.50;99.90;;;;;;5057603;28;20164;-78
2022/07/01 12:17:22;;;;;;;2.20;0.83;;;20.50;99.90;;;;;;5040512;28;20182;-79
2022/07/01 12:19:49;;;;;;;4.00;0.70;;;20.60;1.00;;;;;;5040914;28;20207;-78
2022/07/01 12:22:20;;;;;;;3.63;0.63;;;20.90;99.90;;;;;;5059044;28;20191;-79
2022/07/01 12:24:47;;;;;;;1.13;0.60;;;21.00;1.00;;;;;;5040352;28;20226;-78
2022/07/01 12:27:13;;;;;;;1.47;0.30;;;21.20;99.90;;;;;;5058441;28;20191;-79
2022/07/01 12:29:53;;;;;;;1.67;0.50;;;21.20;99.90;;;;;;5058083;28;20196;-79
2022/07/01 12:32:23;;;;;;;2.33;0.70;;;21.20;1.00;;;;;;5057002;28;20159;-76
2022/07/01 12:34:51;;;;;;;2.70;0.70;;;21.20;26.40;;;;;;5057344;28;20182;-79
2022/07/01 12:37:19;;;;;;;1.67;0.60;;;21.20;99.90;;;;;;5058301;28;20259;-78
2022/07/01 12:39:51;;;;;;;1.77;0.50;;;21.50;1.00;;;;;;5057357;28;20269;-77
2022/07/01 12:42:43;;;;;;;1.63;0.60;;;21.40;99.90;;;;;;5057999;28;20164;-78
2022/07/01 12:45:11;;;;;;;2.13;0.73;;;21.50;99.90;;;;;;5031641;28;20716;-79
2022/07/01 12:47:46;;;;;;;1.30;0.40;;;21.40;1.00;;;;;;5057897;28;20171;-78
2022/07/01 12:50:21;;;;;;;1.73;0.50;;;21.40;99.90;;;;;;5057736;28;20234;-78
2022/07/01 12:52:59;;;;;;;0.70;0.60;;;21.40;1.00;;;;;;5061690;28;20174;-79
2022/07/01 12:55:25;;;;;;;0.50;0.50;;;21.50;99.90;;;;;;5058277;28;20187;-78
2022/07/01 12:57:53;;;;;;;1.53;0.60;;;21.50;1.00;;;;;;5057163;28;20233;-79
2022/07/01 13:00:20;;;;;;;2.13;0.83;;;21.50;1.00;;;;;;5055121;28;20191;-74
2022/07/01 13:02:47;;;;;;;1.23;0.50;;;21.40;99.90;;;;;;5054545;28;20274;-78